createdAt,value
2022-09-10T00:02:19.964Z,5.57
2022-09-10T00:04:47.556Z,4.72
2022-09-10T00:07:15.317Z,5.10
2022-09-10T00:09:42.871Z,5.43
2022-09-10T00:12:11.045Z,4.78
2022-09-10T00:14:39.097Z,4.38
2022-09-10T00:17:07.617Z,4.97
2022-09-10T00:19:35.202Z,4.18
2022-09-10T00:22:02.926Z,4.13
2022-09-10T00:24:30.470Z,4.90
2022-09-10T00:26:59.683Z,4.75
2022-09-10T00:29:27.916Z,4.57
2022-09-10T00:31:55.490Z,4.80
2022-09-10T00:34:23.119Z,4.45
2022-09-10T00:36:50.768Z,4.68
2022-09-10T00:39:19.031Z,4.50
2022-09-10T00:41:48.311Z,4.65
2022-09-10T00:44:41.843Z,3.85
2022-09-10T00:47:27.612Z,4.10
2022-09-10T00:50:01.936Z,4.32
2022-09-10T00:52:29.629Z,3.80
2022-09-10T00:54:57.404Z,3.55
2022-09-10T00:57:25.473Z,2.42
2022-09-10T00:59:56.664Z,2.55
2022-09-10T01:02:24.409Z,2.10
2022-09-10T01:04:52.302Z,2.17
2022-09-10T01:07:21.660Z,2.08
2022-09-10T01:09:49.648Z,2.28
2022-09-10T01:12:23.135Z,3.05
2022-09-10T01:14:59.312Z,2.72
2022-09-10T01:17:42.126Z,2.25
2022-09-10T01:20:29.104Z,2.33
2022-09-10T01:22:59.604Z,1.75
2022-09-10T01:25:59.363Z,1.80
2022-09-10T01:28:31.337Z,2.05
2022-09-10T01:31:03.314Z,2.13
2022-09-10T01:33:38.030Z,2.40
2022-09-10T01:38:35.868Z,1.70
2022-09-10T01:41:05.820Z,2.03
2022-09-10T01:43:42.049Z,2.17
2022-09-10T01:46:15.662Z,1.83
2022-09-10T01:49:04.033Z,2.35
2022-09-10T01:51:42.939Z,1.85
2022-09-10T01:54:29.365Z,1.60
2022-09-10T01:57:20.688Z,1.95
2022-09-10T01:59:55.945Z,2.05
2022-09-10T02:02:26.835Z,1.65
2022-09-10T02:04:55.062Z,1.35
2022-09-10T02:07:24.305Z,1.80
2022-09-10T02:09:53.246Z,1.95
2022-09-10T02:12:22.664Z,2.33
2022-09-10T02:15:03.596Z,1.55
2022-09-10T02:17:57.345Z,2.00
2022-09-10T02:20:25.199Z,1.63
2022-09-10T02:22:54.929Z,1.58
2022-09-10T02:25:23.883Z,1.42
2022-09-10T02:27:56.604Z,1.80
2022-09-10T02:30:24.831Z,1.70
2022-09-10T02:32:52.752Z,1.65
2022-09-10T02:35:21.857Z,2.05
2022-09-10T02:37:50.650Z,1.90
2022-09-10T02:40:19.550Z,1.52
2022-09-10T02:42:47.369Z,1.63
2022-09-10T02:45:19.394Z,1.50
2022-09-10T02:47:47.614Z,1.42
2022-09-10T02:50:16.590Z,1.38
2022-09-10T02:52:51.319Z,1.83
2022-09-10T02:55:19.012Z,2.22
2022-09-10T02:57:47.431Z,2.05
2022-09-10T03:00:15.189Z,3.15
2022-09-10T03:02:42.812Z,2.40
2022-09-10T03:05:13.316Z,2.78
2022-09-10T03:07:40.890Z,3.03
2022-09-10T03:10:08.984Z,3.22
2022-09-10T03:12:36.774Z,2.72
2022-09-10T03:15:04.913Z,2.45
2022-09-10T03:17:32.894Z,2.50
2022-09-10T03:20:00.577Z,1.90
2022-09-10T03:22:28.518Z,2.58
2022-09-10T03:24:56.326Z,3.00
2022-09-10T03:27:25.371Z,3.50
2022-09-10T03:29:54.811Z,2.15
2022-09-10T03:32:24.631Z,1.92
2022-09-10T03:34:52.338Z,2.40
2022-09-10T03:37:19.864Z,2.00
2022-09-10T03:39:48.195Z,1.90
2022-09-10T03:42:16.863Z,1.60
2022-09-10T03:44:44.609Z,2.15
2022-09-10T03:47:13.061Z,1.77
2022-09-10T03:49:40.716Z,2.20
2022-09-10T03:52:12.598Z,1.98
2022-09-10T03:54:41.971Z,2.17
2022-09-10T03:57:09.663Z,1.70
2022-09-10T03:59:41.149Z,1.85
2022-09-10T04:02:10.857Z,1.77
2022-09-10T04:04:38.524Z,1.92
2022-09-10T04:07:06.052Z,1.88
2022-09-10T04:09:34.828Z,1.90
2022-09-10T04:12:03.722Z,2.10
2022-09-10T04:14:33.302Z,2.30
2022-09-10T04:17:02.283Z,1.88
2022-09-10T04:19:31.390Z,2.13
2022-09-10T04:21:59.045Z,1.90
2022-09-10T04:24:26.671Z,2.47
2022-09-10T04:26:54.292Z,2.40
2022-09-10T04:29:23.381Z,2.10
2022-09-10T04:31:51.372Z,1.60
2022-09-10T04:34:20.076Z,2.00
2022-09-10T04:36:47.676Z,1.63
2022-09-10T04:39:15.318Z,2.00
2022-09-10T04:41:43.348Z,1.40
2022-09-10T04:44:10.970Z,1.50
2022-09-10T04:46:38.622Z,1.77
2022-09-10T04:49:11.080Z,1.30
2022-09-10T04:51:38.653Z,1.50
2022-09-10T04:54:06.273Z,1.45
2022-09-10T04:56:37.039Z,1.30
2022-09-10T04:59:05.617Z,1.83
2022-09-10T05:01:37.285Z,1.42
2022-09-10T05:04:05.323Z,1.50
2022-09-10T05:06:36.291Z,1.75
2022-09-10T05:09:05.497Z,2.42
2022-09-10T05:11:34.152Z,2.22
2022-09-10T05:14:01.671Z,2.35
2022-09-10T05:16:31.689Z,1.73
2022-09-10T05:18:59.286Z,1.90
2022-09-10T05:21:29.293Z,2.00
2022-09-10T05:23:57.061Z,1.80
2022-09-10T05:26:25.811Z,1.90
2022-09-10T05:28:55.819Z,2.33
2022-09-10T05:31:23.495Z,2.83
2022-09-10T05:33:51.003Z,2.72
2022-09-10T05:36:18.673Z,3.75
2022-09-10T05:38:46.607Z,3.03
2022-09-10T05:41:15.943Z,3.60
2022-09-10T05:43:46.836Z,3.03
2022-09-10T05:46:14.380Z,3.35
2022-09-10T05:48:46.103Z,2.80
2022-09-10T05:51:14.545Z,3.10
2022-09-10T05:53:43.859Z,3.00
2022-09-10T05:56:12.804Z,3.50
2022-09-10T05:58:41.832Z,2.85
2022-09-10T06:01:11.222Z,3.13
2022-09-10T06:03:40.491Z,3.10
2022-09-10T06:06:08.428Z,3.00
2022-09-10T06:08:37.825Z,2.95
2022-09-10T06:11:12.094Z,3.17
2022-09-10T06:13:44.395Z,3.58
2022-09-10T06:16:13.040Z,3.67
2022-09-10T06:18:42.483Z,2.88
2022-09-10T06:21:12.284Z,3.40
2022-09-10T06:23:41.205Z,3.40
2022-09-10T06:26:18.715Z,3.35
2022-09-10T06:28:49.915Z,3.33
2022-09-10T06:31:19.822Z,3.08
2022-09-10T06:33:51.566Z,2.95
2022-09-10T06:36:22.108Z,3.42
2022-09-10T06:38:51.227Z,3.10
2022-09-10T06:41:19.563Z,3.70
2022-09-10T06:44:02.722Z,9.32
2022-09-10T06:49:31.467Z,4.22
2022-09-10T06:51:59.270Z,3.40
2022-09-10T06:54:27.611Z,3.45
2022-09-10T06:56:59.163Z,3.47
2022-09-10T06:59:26.623Z,2.92
2022-09-10T07:01:55.424Z,3.67
2022-09-10T07:04:23.291Z,3.38
2022-09-10T07:06:51.530Z,3.65
2022-09-10T07:09:19.070Z,2.78
2022-09-10T07:11:57.603Z,2.72
2022-09-10T07:14:25.665Z,3.22
2022-09-10T07:16:54.331Z,3.67
2022-09-10T07:19:24.604Z,3.05
2022-09-10T07:21:52.245Z,3.22
2022-09-10T07:24:21.427Z,2.67
2022-09-10T07:27:00.245Z,2.95
2022-09-10T07:29:30.320Z,3.08
2022-09-10T07:31:58.622Z,3.63
2022-09-10T07:34:26.886Z,3.30
2022-09-10T07:36:56.714Z,4.15
2022-09-10T07:39:25.853Z,4.32
2022-09-10T07:41:56.209Z,4.82
2022-09-10T07:44:27.695Z,4.63
2022-09-10T07:46:59.499Z,3.70
2022-09-10T07:49:27.897Z,2.60
2022-09-10T07:51:59.773Z,2.40
2022-09-10T07:54:32.347Z,3.05
2022-09-10T07:57:01.095Z,2.90
2022-09-10T07:59:28.812Z,3.30
2022-09-10T08:02:02.876Z,3.60
2022-09-10T08:04:36.591Z,3.58
2022-09-10T08:07:06.773Z,4.22
2022-09-10T08:09:36.876Z,4.30
2022-09-10T08:12:07.670Z,4.07
2022-09-10T08:14:38.073Z,3.45
2022-09-10T08:17:05.940Z,4.18
2022-09-10T08:19:39.535Z,4.72
2022-09-10T08:22:12.692Z,5.10
2022-09-10T08:24:47.089Z,5.28
2022-09-10T08:27:16.101Z,4.70
2022-09-10T08:29:44.518Z,5.05
2022-09-10T08:32:13.367Z,4.40
2022-09-10T08:34:42.016Z,4.50
2022-09-10T08:37:12.445Z,4.70
2022-09-10T08:39:40.653Z,4.80
2022-09-10T08:42:09.320Z,4.45
2022-09-10T08:44:47.770Z,4.68
2022-09-10T08:47:20.973Z,4.30
2022-09-10T08:49:53.638Z,4.40
2022-09-10T08:52:24.854Z,4.28
2022-09-10T08:55:10.750Z,4.30
2022-09-10T08:57:48.126Z,3.67
2022-09-10T09:00:18.396Z,5.20
2022-09-10T09:02:58.070Z,5.05
2022-09-10T09:05:28.258Z,4.78
2022-09-10T09:07:59.603Z,4.88
2022-09-10T09:10:50.766Z,4.90
2022-09-10T09:13:37.188Z,6.03
2022-09-10T09:16:14.373Z,4.75
2022-09-10T09:19:22.599Z,4.65
2022-09-10T09:21:56.799Z,3.85
2022-09-10T09:24:48.341Z,3.85
2022-09-10T09:27:17.350Z,4.40
2022-09-10T09:29:56.508Z,4.30
2022-09-10T09:32:24.983Z,4.57
2022-09-10T09:34:54.424Z,4.85
2022-09-10T09:37:30.240Z,4.93
2022-09-10T09:40:12.558Z,4.63
2022-09-10T09:42:44.140Z,4.03
2022-09-10T09:45:24.282Z,4.75
2022-09-10T09:47:54.542Z,5.20
2022-09-10T09:50:23.064Z,5.18
2022-09-10T09:52:54.166Z,4.45
2022-09-10T09:55:41.404Z,4.63
2022-09-10T09:58:29.466Z,4.53
2022-09-10T10:01:05.894Z,3.88
2022-09-10T10:03:48.336Z,4.10
2022-09-10T10:06:17.115Z,4.00
2022-09-10T10:08:56.308Z,3.00
2022-09-10T10:11:38.449Z,4.00
2022-09-10T10:14:20.926Z,3.25
2022-09-10T10:16:49.361Z,3.53
2022-09-10T10:19:36.722Z,4.13
2022-09-10T10:22:20.781Z,3.20
2022-09-10T10:24:49.645Z,3.67
2022-09-10T10:27:37.666Z,3.38
2022-09-10T10:30:07.404Z,3.30
2022-09-10T10:32:45.011Z,3.28
2022-09-10T10:35:19.252Z,3.75
2022-09-10T10:38:03.789Z,3.70
2022-09-10T10:40:36.903Z,4.22
2022-09-10T10:43:20.653Z,3.47
2022-09-10T10:45:54.084Z,3.25
2022-09-10T10:48:28.519Z,3.83
2022-09-10T10:53:25.573Z,3.60
2022-09-10T10:56:07.506Z,3.85
2022-09-10T10:58:49.162Z,3.75
2022-09-10T11:01:19.195Z,3.40
2022-09-10T11:04:06.509Z,3.10
2022-09-10T11:06:38.134Z,3.85
2022-09-10T11:09:09.275Z,3.80
2022-09-10T11:11:37.046Z,4.03
2022-09-10T11:14:20.229Z,3.08
2022-09-10T11:16:55.349Z,2.72
2022-09-10T11:19:31.302Z,3.63
2022-09-10T11:22:01.914Z,2.55
2022-09-10T11:24:41.293Z,3.10
2022-09-10T11:27:20.860Z,3.03
2022-09-10T11:29:58.447Z,3.08
2022-09-10T11:32:27.032Z,2.00
2022-09-10T11:35:12.216Z,2.00
2022-09-10T11:37:46.375Z,1.85
2022-09-10T11:40:17.432Z,2.28
2022-09-10T11:42:47.571Z,2.30
2022-09-10T11:45:28.727Z,1.85
2022-09-10T11:48:00.326Z,3.22
2022-09-10T11:50:34.879Z,2.67
2022-09-10T11:53:07.372Z,2.50
2022-09-10T11:55:53.786Z,1.75
2022-09-10T11:58:26.918Z,1.98
2022-09-10T12:01:05.958Z,2.00
2022-09-10T12:03:48.837Z,2.95
2022-09-10T12:06:27.420Z,2.30
2022-09-10T12:09:01.090Z,2.10
2022-09-10T12:11:58.107Z,1.90
2022-09-10T12:14:25.882Z,2.00
2022-09-10T12:16:55.867Z,3.55
2022-09-10T12:19:23.443Z,4.20
2022-09-10T12:21:53.906Z,2.42
2022-09-10T12:24:36.227Z,2.75
2022-09-10T12:27:05.454Z,2.22
2022-09-10T12:29:37.238Z,2.50
2022-09-10T12:32:17.209Z,3.25
2022-09-10T12:34:48.443Z,2.30
2022-09-10T12:37:21.357Z,2.08
2022-09-10T12:39:49.679Z,2.53
2022-09-10T12:42:33.302Z,2.03
2022-09-10T12:45:01.322Z,1.65
2022-09-10T12:47:34.428Z,2.03
2022-09-10T12:50:04.165Z,1.40
2022-09-10T12:52:43.913Z,1.50
2022-09-10T12:55:11.828Z,1.80
2022-09-10T12:57:39.359Z,1.23
2022-09-10T13:00:07.285Z,1.45
2022-09-10T13:02:37.188Z,1.88
2022-09-10T13:05:20.213Z,1.83
2022-09-10T13:07:51.635Z,2.53
2022-09-10T13:10:22.843Z,1.70
2022-09-10T13:12:57.766Z,1.88
2022-09-10T13:15:26.862Z,1.75
2022-09-10T13:17:54.545Z,1.67
2022-09-10T13:20:22.324Z,1.63
2022-09-10T13:23:08.603Z,1.60
2022-09-10T13:25:42.845Z,1.10
2022-09-10T13:28:29.003Z,1.35
2022-09-10T13:31:05.828Z,1.45
2022-09-10T13:33:34.898Z,1.30
2022-09-10T13:36:05.735Z,1.42
2022-09-10T13:38:33.338Z,1.38
2022-09-10T13:41:04.326Z,1.25
2022-09-10T13:43:31.826Z,1.20
2022-09-10T13:46:01.109Z,0.95
2022-09-10T13:48:43.310Z,1.50
2022-09-10T13:51:25.996Z,1.10
2022-09-10T13:53:54.246Z,1.30
2022-09-10T13:56:27.514Z,1.40
2022-09-10T13:59:03.136Z,1.42
2022-09-10T14:01:56.851Z,1.40
2022-09-10T14:04:26.428Z,1.10
2022-09-10T14:07:07.456Z,1.45
2022-09-10T14:09:35.222Z,1.45
2022-09-10T14:12:04.712Z,1.20
2022-09-10T14:14:36.035Z,1.48
2022-09-10T14:17:05.468Z,1.42
2022-09-10T14:19:41.413Z,1.13
2022-09-10T14:22:13.754Z,1.27
2022-09-10T14:24:41.444Z,1.17
2022-09-10T14:27:16.623Z,1.30
2022-09-10T14:29:44.245Z,1.00
2022-09-10T14:32:18.480Z,1.35
2022-09-10T14:34:47.875Z,1.50
2022-09-10T14:37:26.749Z,1.50
2022-09-10T14:39:54.345Z,1.40
2022-09-10T14:42:29.411Z,1.30
2022-09-10T14:44:57.175Z,0.98
2022-09-10T14:47:35.804Z,1.15
2022-09-10T14:50:26.060Z,1.20
2022-09-10T14:52:53.642Z,1.10
2022-09-10T14:55:24.139Z,1.00
2022-09-10T14:57:55.887Z,1.50
2022-09-10T15:00:24.144Z,1.20
2022-09-10T15:02:52.599Z,0.85
2022-09-10T15:05:20.653Z,1.05
2022-09-10T15:07:48.266Z,1.27
2022-09-10T15:10:17.080Z,1.35
2022-09-10T15:12:47.018Z,1.20
2022-09-10T15:15:17.496Z,1.48
2022-09-10T15:17:45.290Z,1.50
2022-09-10T15:20:17.207Z,1.60
2022-09-10T15:22:45.273Z,1.52
2022-09-10T15:25:25.439Z,1.33
2022-09-10T15:27:53.020Z,1.17
2022-09-10T15:30:20.477Z,1.20
2022-09-10T15:32:48.199Z,1.17
2022-09-10T15:35:15.461Z,1.40
2022-09-10T15:37:42.548Z,1.40
2022-09-10T15:40:10.250Z,1.50
2022-09-10T15:42:37.472Z,1.75
2022-09-10T15:45:04.903Z,1.90
2022-09-10T15:47:33.757Z,1.02
2022-09-10T15:50:00.899Z,1.35
2022-09-10T15:52:28.142Z,1.50
2022-09-10T15:54:55.308Z,1.30
2022-09-10T15:57:22.432Z,1.35
2022-09-10T15:59:49.590Z,1.20
2022-09-10T16:02:18.499Z,1.52
2022-09-10T16:04:45.754Z,1.63
2022-09-10T16:07:13.786Z,1.52
2022-09-10T16:09:42.423Z,1.30
2022-09-10T16:12:10.110Z,1.55
2022-09-10T16:14:37.339Z,1.38
2022-09-10T16:17:10.395Z,1.38
2022-09-10T16:19:38.070Z,1.25
2022-09-10T16:22:08.189Z,1.30
2022-09-10T16:24:35.409Z,1.23
2022-09-10T16:27:02.779Z,1.10
2022-09-10T16:29:29.949Z,1.35
2022-09-10T16:31:57.372Z,1.27
2022-09-10T16:34:24.530Z,1.30
2022-09-10T16:36:51.878Z,1.10
2022-09-10T16:39:19.864Z,1.02
2022-09-10T16:41:48.708Z,1.10
2022-09-10T16:44:17.763Z,1.00
2022-09-10T16:46:46.266Z,0.93
2022-09-10T16:49:15.128Z,1.10
2022-09-10T16:51:43.849Z,1.00
2022-09-10T16:54:11.744Z,1.10
2022-09-10T16:56:42.206Z,1.35
2022-09-10T16:59:20.535Z,1.30
2022-09-10T17:01:49.233Z,0.95
2022-09-10T17:04:27.569Z,1.15
2022-09-10T17:06:59.103Z,1.20
2022-09-10T17:09:26.478Z,1.50
2022-09-10T17:11:54.569Z,1.30
2022-09-10T17:14:21.806Z,1.33
2022-09-10T17:16:49.944Z,1.17
2022-09-10T17:19:26.502Z,1.40
2022-09-10T17:21:55.690Z,1.30
2022-09-10T17:24:27.093Z,1.40
2022-09-10T17:26:55.338Z,1.42
2022-09-10T17:29:24.878Z,1.20
2022-09-10T17:31:52.357Z,1.30
2022-09-10T17:34:21.511Z,1.50
2022-09-10T17:36:49.116Z,1.67
2022-09-10T17:39:17.106Z,1.10
2022-09-10T17:41:44.488Z,1.25
2022-09-10T17:44:13.391Z,1.30
2022-09-10T17:46:42.813Z,1.00
2022-09-10T17:49:13.578Z,1.20
2022-09-10T17:51:42.040Z,1.50
2022-09-10T17:54:09.456Z,1.17
2022-09-10T17:56:38.106Z,1.30
2022-09-10T17:59:05.918Z,1.50
2022-09-10T18:01:37.766Z,1.20
2022-09-10T18:04:06.475Z,1.38
2022-09-10T18:06:35.850Z,1.48
2022-09-10T18:09:03.934Z,1.30
2022-09-10T18:11:34.438Z,1.00
2022-09-10T18:14:01.838Z,1.33
2022-09-10T18:16:32.074Z,1.38
2022-09-10T18:19:01.617Z,1.50
2022-09-10T18:21:38.233Z,1.48
2022-09-10T18:24:07.338Z,1.30
2022-09-10T18:26:37.196Z,1.05
2022-09-10T18:29:06.535Z,1.48
2022-09-10T18:31:35.737Z,1.38
2022-09-10T18:34:03.774Z,1.73
2022-09-10T18:36:31.607Z,1.60
2022-09-10T18:39:02.372Z,1.60
2022-09-10T18:41:31.399Z,1.50
2022-09-10T18:44:00.740Z,1.50
2022-09-10T18:46:31.400Z,1.48
2022-09-10T18:48:59.488Z,1.27
2022-09-10T18:51:27.788Z,1.38
2022-09-10T18:53:56.875Z,1.40
2022-09-10T18:56:25.688Z,1.80
2022-09-10T18:58:58.570Z,1.70
2022-09-10T19:01:27.428Z,1.50
2022-09-10T19:03:57.576Z,1.80
2022-09-10T19:06:29.524Z,1.75
2022-09-10T19:08:57.832Z,1.80
2022-09-10T19:11:26.452Z,1.88
2022-09-10T19:13:55.472Z,1.80
2022-09-10T19:16:25.060Z,1.70
2022-09-10T19:18:53.722Z,1.70
2022-09-10T19:21:22.102Z,1.70
2022-09-10T19:23:50.541Z,1.50
2022-09-10T19:26:19.011Z,1.40
2022-09-10T19:28:47.893Z,1.92
2022-09-10T19:31:16.910Z,1.42
2022-09-10T19:33:44.549Z,1.55
2022-09-10T19:36:13.791Z,1.30
2022-09-10T19:38:42.283Z,1.45
2022-09-10T19:41:12.186Z,1.60
2022-09-10T19:43:40.302Z,1.70
2022-09-10T19:46:10.631Z,1.40
2022-09-10T19:48:38.826Z,1.60
2022-09-10T19:51:07.006Z,1.15
2022-09-10T19:53:35.351Z,1.88
2022-09-10T19:56:18.270Z,1.83
2022-09-10T20:01:18.988Z,1.65
2022-09-10T20:03:47.149Z,1.60
2022-09-10T20:06:16.785Z,1.65
2022-09-10T20:08:44.614Z,1.60
2022-09-10T20:11:16.722Z,1.60
2022-09-10T20:13:45.360Z,1.83
2022-09-10T20:16:13.378Z,2.05
2022-09-10T20:18:41.437Z,2.13
2022-09-10T20:21:11.804Z,2.10
2022-09-10T20:23:40.070Z,1.90
2022-09-10T20:26:09.170Z,1.98
2022-09-10T20:28:37.671Z,1.92
2022-09-10T20:31:09.016Z,2.20
2022-09-10T20:33:42.270Z,2.30
2022-09-10T20:36:11.806Z,2.03
2022-09-10T20:38:39.567Z,1.83
2022-09-10T20:41:08.009Z,1.92
2022-09-10T20:43:35.525Z,2.10
2022-09-10T20:46:03.269Z,2.53
2022-09-10T20:48:31.924Z,2.67
2022-09-10T20:51:00.201Z,2.60
2022-09-10T20:53:28.340Z,2.40
2022-09-10T20:56:06.390Z,2.33
2022-09-10T20:58:36.647Z,2.58
2022-09-10T21:01:07.430Z,2.42
2022-09-10T21:03:35.112Z,2.33
2022-09-10T21:06:02.692Z,2.42
2022-09-10T21:08:31.666Z,2.30
2022-09-10T21:11:03.078Z,2.60
2022-09-10T21:13:30.627Z,2.22
2022-09-10T21:16:05.067Z,3.15
2022-09-10T21:18:33.435Z,2.58
2022-09-10T21:21:10.838Z,2.45
2022-09-10T21:23:45.675Z,2.67
2022-09-10T21:26:14.107Z,4.55
2022-09-10T21:28:42.222Z,5.88
2022-09-10T21:31:10.203Z,4.95
2022-09-10T21:33:37.925Z,6.22
2022-09-10T21:36:06.839Z,5.35
2022-09-10T21:38:35.165Z,5.03
2022-09-10T21:41:03.746Z,3.85
2022-09-10T21:43:35.395Z,4.30
2022-09-10T21:46:03.671Z,3.88
2022-09-10T21:48:31.911Z,3.50
2022-09-10T21:51:09.084Z,3.78
2022-09-10T21:53:36.679Z,5.45
2022-09-10T21:56:04.647Z,3.50
2022-09-10T21:58:33.725Z,3.50
2022-09-10T22:01:01.582Z,3.55
2022-09-10T22:03:31.128Z,3.42
2022-09-10T22:06:24.834Z,3.53
2022-09-10T22:08:53.450Z,3.88
2022-09-10T22:11:23.951Z,3.55
2022-09-10T22:13:53.234Z,5.20
2022-09-10T22:16:22.694Z,4.95
2022-09-10T22:18:50.558Z,4.55
2022-09-10T22:21:18.540Z,4.75
2022-09-10T22:23:46.032Z,5.47
2022-09-10T22:26:17.353Z,5.80
2022-09-10T22:28:44.899Z,5.70
2022-09-10T22:31:15.940Z,6.50
2022-09-10T22:33:45.022Z,6.75
2022-09-10T22:36:16.863Z,6.80
2022-09-10T22:38:44.391Z,6.30
2022-09-10T22:41:14.406Z,5.93
2022-09-10T22:43:43.053Z,6.25
2022-09-10T22:46:11.144Z,6.38
2022-09-10T22:48:39.587Z,6.10
2022-09-10T22:51:07.987Z,5.57
2022-09-10T22:53:35.620Z,5.80
2022-09-10T22:56:03.293Z,6.10
2022-09-10T22:58:31.364Z,5.82
2022-09-10T23:01:09.399Z,5.43
2022-09-10T23:03:37.490Z,5.90
2022-09-10T23:06:09.627Z,5.65
2022-09-10T23:08:37.318Z,5.93
2022-09-10T23:11:37.502Z,6.50
2022-09-10T23:14:06.539Z,6.38
2022-09-10T23:16:34.483Z,6.75
2022-09-10T23:19:03.966Z,6.63
2022-09-10T23:21:32.599Z,6.68
2022-09-10T23:24:01.527Z,6.70
2022-09-10T23:26:29.526Z,6.72
2022-09-10T23:28:59.427Z,7.20
2022-09-10T23:31:32.540Z,9.00
2022-09-10T23:34:01.457Z,8.55
2022-09-10T23:36:31.282Z,8.40
2022-09-10T23:38:59.528Z,8.02
2022-09-10T23:41:27.097Z,8.27
2022-09-10T23:43:54.938Z,8.43
2022-09-10T23:46:22.553Z,7.82
2022-09-10T23:48:50.107Z,8.13
2022-09-10T23:51:19.994Z,8.32
2022-09-10T23:53:48.091Z,8.82
2022-09-10T23:56:20.119Z,7.75
2022-09-10T23:58:47.988Z,7.78
